Pearl, Mississippi
Current Conditions -  °F | °C
As of 9:54 PM on Wednesday 17 Dec 2014 (Local Time) from KJAN Reporting Station
Scattered Clouds Scattered Clouds  
Wind Chill: 42°   Ceiling: Unl
Heat Index: 44°   Visibility: 10mi
Dew Point: 40°   Wind: 5mph
Humidity: 85%   Direction: 20°NNE
Pressure: 30.2"   Gusts: NA
Location:  32.2996°N, 90.1428°W
Report Text: KJAN 180354Z 02004KT 10SM SCT250 07/04 A3020 RMK AO2 SLP226 T00670044
Loading
Personal Weather Stations






























Interactive Weather Map New forecast layout! Learn more

10-Day Weather Forecast

Advertisements
Track Severe Weather on mobile